createdAt,value
2019-01-25T00:00:50.831Z,0.90
2019-01-25T00:03:20.414Z,0.90
2019-01-25T00:05:49.820Z,1.00
2019-01-25T00:08:19.425Z,1.00
2019-01-25T00:10:48.806Z,1.00
2019-01-25T00:13:18.358Z,1.10
2019-01-25T00:15:47.874Z,1.10
2019-01-25T00:18:17.276Z,1.20
2019-01-25T00:20:47.046Z,1.20
2019-01-25T00:23:16.554Z,1.20
2019-01-25T00:25:45.956Z,1.30
2019-01-25T00:28:15.442Z,1.40
2019-01-25T00:30:44.888Z,1.30
2019-01-25T00:33:14.404Z,1.40
2019-01-25T00:35:43.966Z,1.40
2019-01-25T00:38:13.467Z,1.50
2019-01-25T00:40:42.926Z,1.50
2019-01-25T00:43:12.517Z,1.50
2019-01-25T00:45:41.986Z,1.50
2019-01-25T00:48:11.390Z,1.50
2019-01-25T00:50:41.031Z,1.50
2019-01-25T00:53:10.501Z,1.50
2019-01-25T00:55:40.078Z,1.50
2019-01-25T00:58:09.701Z,1.50
2019-01-25T01:00:39.342Z,1.60
2019-01-25T01:03:08.868Z,1.50
2019-01-25T01:05:38.362Z,1.50
2019-01-25T01:08:07.970Z,1.50
2019-01-25T01:10:37.394Z,1.50
2019-01-25T01:13:06.789Z,1.50
2019-01-25T01:15:36.338Z,1.50
2019-01-25T01:18:05.759Z,1.50
2019-01-25T01:20:35.139Z,1.50
2019-01-25T01:23:04.718Z,1.50
2019-01-25T01:25:34.124Z,1.50
2019-01-25T01:28:03.621Z,1.50
2019-01-25T01:30:33.074Z,1.50
2019-01-25T01:33:02.537Z,1.50
2019-01-25T01:35:32.116Z,1.50
2019-01-25T01:38:01.599Z,1.40
2019-01-25T01:40:31.076Z,1.40
2019-01-25T01:43:00.593Z,1.40
2019-01-25T01:45:30.141Z,1.40
2019-01-25T01:47:59.616Z,1.40
2019-01-25T01:50:28.998Z,1.30
2019-01-25T01:52:58.506Z,1.40
2019-01-25T01:55:27.896Z,1.40
2019-01-25T01:57:57.437Z,1.30
2019-01-25T02:00:27.420Z,1.40
2019-01-25T02:02:56.984Z,1.30
2019-01-25T02:05:26.519Z,1.30
2019-01-25T02:07:56.198Z,1.30
2019-01-25T02:10:29.472Z,1.30
2019-01-25T02:12:57.585Z,1.30
2019-01-25T02:15:27.132Z,1.30
2019-01-25T02:17:56.651Z,1.30
2019-01-25T02:20:27.942Z,1.30
2019-01-25T02:22:57.301Z,1.30
2019-01-25T02:25:26.724Z,1.30
2019-01-25T02:27:56.266Z,1.30
2019-01-25T02:30:26.526Z,1.30
2019-01-25T02:32:56.000Z,1.30
2019-01-25T02:35:25.563Z,1.30
2019-01-25T02:37:55.168Z,1.20
2019-01-25T02:40:24.994Z,1.20
2019-01-25T02:42:54.574Z,1.10
2019-01-25T02:45:24.228Z,1.10
2019-01-25T02:47:53.708Z,1.10
2019-01-25T02:50:23.114Z,1.10
2019-01-25T02:52:52.524Z,1.00
2019-01-25T02:55:22.010Z,1.00
2019-01-25T02:57:51.562Z,1.00
2019-01-25T03:00:25.255Z,1.00
2019-01-25T03:02:55.126Z,0.90
2019-01-25T03:05:24.906Z,0.90
2019-01-25T03:07:54.636Z,0.80
2019-01-25T03:10:28.979Z,0.80
2019-01-25T03:12:55.400Z,0.80
2019-01-25T03:15:26.130Z,0.80
2019-01-25T03:17:55.617Z,0.70
2019-01-25T03:20:25.448Z,0.70
2019-01-25T03:22:55.012Z,0.70
2019-01-25T03:25:26.200Z,0.70
2019-01-25T03:27:55.712Z,0.60
2019-01-25T03:30:26.143Z,0.60
2019-01-25T03:32:55.689Z,0.50
2019-01-25T03:35:26.288Z,0.50
2019-01-25T03:37:55.949Z,0.50
2019-01-25T03:40:27.328Z,0.50
2019-01-25T03:42:57.104Z,0.60
2019-01-25T03:45:26.717Z,0.60
2019-01-25T03:47:56.322Z,0.70
2019-01-25T03:50:27.783Z,0.70
2019-01-25T03:52:57.552Z,0.70
2019-01-25T03:55:27.348Z,0.70
2019-01-25T03:57:56.864Z,0.70
2019-01-25T04:00:30.237Z,0.80
2019-01-25T04:02:59.809Z,0.80
2019-01-25T04:05:29.348Z,0.80
2019-01-25T04:07:58.814Z,0.80
2019-01-25T04:10:28.899Z,0.90
2019-01-25T04:12:58.525Z,0.90
2019-01-25T04:15:30.767Z,0.90
2019-01-25T04:18:00.212Z,0.90
2019-01-25T04:20:30.013Z,1.00
2019-01-25T04:22:59.544Z,1.00
2019-01-25T04:25:29.075Z,1.00
2019-01-25T04:27:58.530Z,1.10
2019-01-25T04:30:29.940Z,1.10
2019-01-25T04:33:00.243Z,1.10
2019-01-25T04:35:29.812Z,1.20
2019-01-25T04:37:59.317Z,1.20
2019-01-25T04:40:28.817Z,1.30
2019-01-25T04:42:58.283Z,1.30
2019-01-25T04:45:27.689Z,1.40
2019-01-25T04:47:57.168Z,1.40
2019-01-25T04:50:26.850Z,1.50
2019-01-25T04:52:56.383Z,1.50
2019-01-25T04:55:28.311Z,1.50
2019-01-25T04:58:06.480Z,1.60
2019-01-25T05:00:35.881Z,1.60
2019-01-25T05:03:05.723Z,1.60
2019-01-25T05:05:35.242Z,1.70
2019-01-25T05:08:10.698Z,1.70
2019-01-25T05:10:40.251Z,1.70
2019-01-25T05:13:09.700Z,1.80
2019-01-25T05:15:39.112Z,1.80
2019-01-25T05:18:08.792Z,1.90
2019-01-25T05:20:38.246Z,1.90
2019-01-25T05:23:09.234Z,1.90
2019-01-25T05:25:38.677Z,2.00
2019-01-25T05:28:15.844Z,2.00
2019-01-25T05:30:57.017Z,2.00
2019-01-25T05:33:26.512Z,2.10
2019-01-25T05:35:55.926Z,2.10
2019-01-25T05:38:25.476Z,2.10
2019-01-25T05:40:55.049Z,2.20
2019-01-25T05:43:24.441Z,2.20
2019-01-25T05:45:53.919Z,2.20
2019-01-25T05:48:26.711Z,2.20
2019-01-25T05:50:59.238Z,2.30
2019-01-25T05:53:28.640Z,2.30
2019-01-25T05:55:58.252Z,2.30
2019-01-25T05:58:27.761Z,2.40
2019-01-25T06:00:57.312Z,2.40
2019-01-25T06:03:26.853Z,2.40
2019-01-25T06:05:59.452Z,2.40
2019-01-25T06:08:29.696Z,2.40
2019-01-25T06:11:01.167Z,2.40
2019-01-25T06:13:30.967Z,2.50
2019-01-25T06:16:00.473Z,2.50
2019-01-25T06:18:29.938Z,2.50
2019-01-25T06:20:59.834Z,2.60
2019-01-25T06:23:29.429Z,2.60
2019-01-25T06:25:59.829Z,2.60
2019-01-25T06:28:29.415Z,2.60
2019-01-25T06:30:58.841Z,2.70
2019-01-25T06:33:28.315Z,2.70
2019-01-25T06:35:57.817Z,2.70
2019-01-25T06:38:27.373Z,2.70
2019-01-25T06:40:56.882Z,2.80
2019-01-25T06:43:26.286Z,2.80
2019-01-25T06:45:55.797Z,2.80
2019-01-25T06:48:25.305Z,2.80
2019-01-25T06:50:54.707Z,2.80
2019-01-25T06:53:24.149Z,2.80
2019-01-25T06:55:53.555Z,2.80
2019-01-25T06:58:27.611Z,2.80
2019-01-25T07:00:58.634Z,2.80
2019-01-25T07:03:28.299Z,2.80
2019-01-25T07:05:57.775Z,2.80
2019-01-25T07:08:27.344Z,2.80
2019-01-25T07:10:56.829Z,2.80
2019-01-25T07:13:26.279Z,2.80
2019-01-25T07:15:55.797Z,2.80
2019-01-25T07:18:25.195Z,2.80
2019-01-25T07:20:54.625Z,2.80
2019-01-25T07:23:24.039Z,2.80
2019-01-25T07:25:53.454Z,2.80
2019-01-25T07:28:22.945Z,2.90
2019-01-25T07:30:52.337Z,2.90
2019-01-25T07:33:21.983Z,2.90
2019-01-25T07:35:51.670Z,2.90
2019-01-25T07:38:21.464Z,2.90
2019-01-25T07:40:50.846Z,3.00
2019-01-25T07:43:20.342Z,3.00
2019-01-25T07:45:49.761Z,3.00
2019-01-25T07:48:19.244Z,3.00
2019-01-25T07:50:48.801Z,3.00
2019-01-25T07:53:18.365Z,3.00
2019-01-25T07:55:47.784Z,3.00
2019-01-25T07:58:17.315Z,3.00
2019-01-25T08:00:47.044Z,3.00
2019-01-25T08:03:16.529Z,3.00
2019-01-25T08:05:46.238Z,3.00
2019-01-25T08:08:15.548Z,3.00
2019-01-25T08:10:45.025Z,3.10
2019-01-25T08:13:14.585Z,3.00
2019-01-25T08:15:44.216Z,3.00
2019-01-25T08:18:13.617Z,3.00
2019-01-25T08:20:43.234Z,3.10
2019-01-25T08:23:12.910Z,3.00
2019-01-25T08:25:42.490Z,3.10
2019-01-25T08:28:12.059Z,3.10
2019-01-25T08:30:41.523Z,3.10
2019-01-25T08:33:10.863Z,3.10
2019-01-25T08:35:40.428Z,3.10
2019-01-25T08:38:09.911Z,3.10
2019-01-25T08:40:39.394Z,3.10
2019-01-25T08:43:09.091Z,3.10
2019-01-25T08:45:38.610Z,3.10
2019-01-25T08:48:08.218Z,3.10
2019-01-25T08:50:37.835Z,3.00
2019-01-25T08:53:07.456Z,3.00
2019-01-25T08:55:36.971Z,3.00
2019-01-25T08:58:06.590Z,3.00
2019-01-25T09:00:36.248Z,3.00
2019-01-25T09:03:05.779Z,3.00
2019-01-25T09:05:35.179Z,3.10
2019-01-25T09:08:04.831Z,3.10
2019-01-25T09:10:34.390Z,3.20
2019-01-25T09:13:03.993Z,3.20
2019-01-25T09:15:35.103Z,3.20
2019-01-25T09:18:04.863Z,3.20
2019-01-25T09:20:34.480Z,3.30
2019-01-25T09:23:04.051Z,3.30
2019-01-25T09:25:33.503Z,3.30
2019-01-25T09:28:03.111Z,3.30
2019-01-25T09:30:32.576Z,3.30
2019-01-25T09:33:02.061Z,3.30
2019-01-25T09:35:31.620Z,3.40
2019-01-25T09:38:01.188Z,3.40
2019-01-25T09:40:30.681Z,3.40
2019-01-25T09:43:00.248Z,3.50
2019-01-25T09:45:29.963Z,3.60
2019-01-25T09:47:59.684Z,3.70
2019-01-25T09:50:29.244Z,3.70
2019-01-25T09:52:58.736Z,3.70
2019-01-25T09:55:28.241Z,3.80
2019-01-25T09:58:03.893Z,3.80
2019-01-25T10:00:42.215Z,3.80
2019-01-25T10:03:11.698Z,3.90
2019-01-25T10:05:41.291Z,3.90
2019-01-25T10:08:10.711Z,3.90
2019-01-25T10:10:40.295Z,3.90
2019-01-25T10:13:09.769Z,3.90
2019-01-25T10:15:40.901Z,3.90
2019-01-25T10:18:10.583Z,3.90
2019-01-25T10:20:40.209Z,3.90
2019-01-25T10:23:09.595Z,4.00
2019-01-25T10:25:39.665Z,4.00
2019-01-25T10:28:09.329Z,4.00
2019-01-25T10:30:38.820Z,4.10
2019-01-25T10:33:08.366Z,4.10
2019-01-25T10:35:37.893Z,4.20
2019-01-25T10:38:07.395Z,4.20
2019-01-25T10:40:36.961Z,4.20
2019-01-25T10:43:06.466Z,4.20
2019-01-25T10:45:41.610Z,4.10
2019-01-25T10:48:11.271Z,4.10
2019-01-25T10:50:40.746Z,4.10
2019-01-25T10:53:10.160Z,4.10
2019-01-25T10:55:39.771Z,4.10
2019-01-25T10:58:09.619Z,4.10
2019-01-25T11:00:39.143Z,4.20
2019-01-25T11:03:08.672Z,4.20
2019-01-25T11:05:38.216Z,4.20
2019-01-25T11:08:07.699Z,4.20
2019-01-25T11:10:37.240Z,4.30
2019-01-25T11:13:06.802Z,4.30
2019-01-25T11:15:36.315Z,4.30
2019-01-25T11:18:05.947Z,4.30
2019-01-25T11:20:35.447Z,4.40
2019-01-25T11:23:05.069Z,4.30
2019-01-25T11:25:37.404Z,4.30
2019-01-25T11:28:06.863Z,4.30
2019-01-25T11:30:36.542Z,4.40
2019-01-25T11:33:06.190Z,4.40
2019-01-25T11:35:35.693Z,4.50
2019-01-25T11:38:05.361Z,4.50
2019-01-25T11:40:40.264Z,4.50
2019-01-25T11:43:09.752Z,4.50
2019-01-25T11:45:39.199Z,4.60
2019-01-25T11:48:13.442Z,4.60
2019-01-25T11:50:42.819Z,4.60
2019-01-25T11:53:12.392Z,4.70
2019-01-25T11:55:41.922Z,4.80
2019-01-25T11:58:11.390Z,4.80
2019-01-25T12:00:43.025Z,4.80
2019-01-25T12:03:13.718Z,4.90
2019-01-25T12:05:43.429Z,4.90
2019-01-25T12:08:12.995Z,4.90
2019-01-25T12:10:43.502Z,5.00
2019-01-25T12:13:16.277Z,5.00
2019-01-25T12:15:45.919Z,5.10
2019-01-25T12:18:16.324Z,5.00
2019-01-25T12:20:45.787Z,5.00
2019-01-25T12:23:15.337Z,5.00
2019-01-25T12:25:44.820Z,4.90
2019-01-25T12:28:14.299Z,4.90
2019-01-25T12:30:43.859Z,4.90
2019-01-25T12:33:13.360Z,4.80
2019-01-25T12:35:43.062Z,4.80
2019-01-25T12:38:12.516Z,4.70
2019-01-25T12:40:42.772Z,4.70
2019-01-25T12:43:12.312Z,4.70
2019-01-25T12:45:41.892Z,4.70
2019-01-25T12:48:11.432Z,4.70
2019-01-25T12:50:49.022Z,4.70
2019-01-25T12:53:18.491Z,4.70
2019-01-25T12:55:48.077Z,4.70
2019-01-25T12:58:17.597Z,4.70
2019-01-25T13:00:47.120Z,4.70
2019-01-25T13:03:16.600Z,4.70
2019-01-25T13:05:46.075Z,4.70
2019-01-25T13:08:15.570Z,4.60
2019-01-25T13:10:45.076Z,4.60
2019-01-25T13:13:14.694Z,4.70
2019-01-25T13:15:44.165Z,4.60
2019-01-25T13:18:15.388Z,4.70
2019-01-25T13:20:44.802Z,4.70
2019-01-25T13:23:14.273Z,4.70
2019-01-25T13:25:47.278Z,4.70
2019-01-25T13:28:14.762Z,4.70
2019-01-25T13:30:44.264Z,4.70
2019-01-25T13:33:13.834Z,4.80
2019-01-25T13:35:43.230Z,4.70
2019-01-25T13:38:12.684Z,4.70
2019-01-25T13:40:42.104Z,4.60
2019-01-25T13:43:11.680Z,4.60
2019-01-25T13:45:41.168Z,4.60
2019-01-25T13:48:10.667Z,4.60
2019-01-25T13:50:40.254Z,4.60
2019-01-25T13:53:09.690Z,4.60
2019-01-25T13:55:39.250Z,4.60
2019-01-25T13:58:08.828Z,4.60
2019-01-25T14:00:38.400Z,4.60
2019-01-25T14:03:07.881Z,4.60
2019-01-25T14:05:37.374Z,4.50
2019-01-25T14:08:06.858Z,4.60
2019-01-25T14:10:37.021Z,4.60
2019-01-25T14:13:06.848Z,4.60
2019-01-25T14:15:36.378Z,4.60
2019-01-25T14:18:06.390Z,4.60
2019-01-25T14:20:35.832Z,4.60
2019-01-25T14:23:05.972Z,4.60
2019-01-25T14:25:35.495Z,4.60
2019-01-25T14:28:05.184Z,4.60
2019-01-25T14:30:40.009Z,4.60
2019-01-25T14:33:09.526Z,4.60
2019-01-25T14:35:39.142Z,4.60
2019-01-25T14:38:09.344Z,4.60
2019-01-25T14:40:38.986Z,4.60
2019-01-25T14:43:08.429Z,4.60
2019-01-25T14:45:37.903Z,4.60
2019-01-25T14:48:07.589Z,4.60
2019-01-25T14:50:37.082Z,4.50
2019-01-25T14:53:06.912Z,4.50
2019-01-25T14:55:36.438Z,4.50
2019-01-25T14:58:06.195Z,4.50
2019-01-25T15:00:35.764Z,4.40
2019-01-25T15:03:05.654Z,4.40
2019-01-25T15:05:35.134Z,4.40
2019-01-25T15:08:04.855Z,4.40
2019-01-25T15:10:35.137Z,4.40
2019-01-25T15:13:05.952Z,4.40
2019-01-25T15:15:35.434Z,4.40
2019-01-25T15:18:05.186Z,4.40
2019-01-25T15:20:34.642Z,4.40
2019-01-25T15:23:04.282Z,4.40
2019-01-25T15:25:33.769Z,4.40
2019-01-25T15:28:03.219Z,4.40
2019-01-25T15:30:33.202Z,4.40
2019-01-25T15:33:02.659Z,4.40
2019-01-25T15:35:32.208Z,4.30
2019-01-25T15:38:01.712Z,4.30
2019-01-25T15:40:31.369Z,4.30
2019-01-25T15:43:00.903Z,4.30
2019-01-25T15:45:30.539Z,4.30
2019-01-25T15:48:00.584Z,4.30
2019-01-25T15:50:31.338Z,4.20
2019-01-25T15:53:00.886Z,4.20
2019-01-25T15:55:30.591Z,4.10
2019-01-25T15:58:00.122Z,4.10
2019-01-25T16:00:29.974Z,4.10
2019-01-25T16:02:59.552Z,4.10
2019-01-25T16:05:29.122Z,4.10
2019-01-25T16:07:58.597Z,4.00
2019-01-25T16:10:28.148Z,4.00
2019-01-25T16:12:57.570Z,4.00
2019-01-25T16:15:28.673Z,4.10
2019-01-25T16:17:58.272Z,4.00
2019-01-25T16:20:27.672Z,4.10
2019-01-25T16:22:57.384Z,4.10
2019-01-25T16:25:31.625Z,4.10
2019-01-25T16:28:01.067Z,4.00
2019-01-25T16:30:32.980Z,4.10
2019-01-25T16:33:02.611Z,4.10
2019-01-25T16:35:32.327Z,4.00
2019-01-25T16:38:02.087Z,4.00
2019-01-25T16:40:32.182Z,4.00
2019-01-25T16:43:01.741Z,4.00
2019-01-25T16:45:39.351Z,4.00
2019-01-25T16:48:09.409Z,4.00
2019-01-25T16:50:39.868Z,4.00
2019-01-25T16:53:10.234Z,4.00
2019-01-25T16:55:39.826Z,4.00
2019-01-25T16:58:09.471Z,4.00
2019-01-25T17:00:41.104Z,4.00
2019-01-25T17:03:10.710Z,4.00
2019-01-25T17:05:41.179Z,4.00
2019-01-25T17:08:10.744Z,4.10
2019-01-25T17:10:41.174Z,4.10
2019-01-25T17:13:10.738Z,4.10
2019-01-25T17:15:40.361Z,4.10
2019-01-25T17:18:10.003Z,4.10
2019-01-25T17:20:39.676Z,4.10
2019-01-25T17:23:09.167Z,4.10
2019-01-25T17:25:38.621Z,4.10
2019-01-25T17:28:08.174Z,4.20
2019-01-25T17:30:38.586Z,4.20
2019-01-25T17:33:08.019Z,4.20
2019-01-25T17:35:39.409Z,4.20
2019-01-25T17:38:08.895Z,4.20
2019-01-25T17:40:46.756Z,4.10
2019-01-25T17:43:14.229Z,4.10
2019-01-25T17:45:43.735Z,4.20
2019-01-25T17:48:13.199Z,4.10
2019-01-25T17:50:42.741Z,4.10
2019-01-25T17:53:12.309Z,4.10
2019-01-25T17:55:41.795Z,4.10
2019-01-25T17:58:11.335Z,4.10
2019-01-25T18:00:42.443Z,4.20
2019-01-25T18:03:12.091Z,4.20
2019-01-25T18:05:41.605Z,4.20
2019-01-25T18:08:10.983Z,4.20
2019-01-25T18:10:40.461Z,4.20
2019-01-25T18:13:09.943Z,4.20
2019-01-25T18:15:39.775Z,4.30
2019-01-25T18:18:09.607Z,4.20
2019-01-25T18:20:39.137Z,4.20
2019-01-25T18:23:08.675Z,4.30
2019-01-25T18:25:43.610Z,4.20
2019-01-25T18:28:16.069Z,4.30
2019-01-25T18:30:54.428Z,4.30
2019-01-25T18:33:23.889Z,4.30
2019-01-25T18:35:53.425Z,4.30
2019-01-25T18:38:22.878Z,4.30
2019-01-25T18:40:52.493Z,4.30
2019-01-25T18:43:21.918Z,4.40
2019-01-25T18:45:51.476Z,4.40
2019-01-25T18:48:21.149Z,4.40
2019-01-25T18:50:50.739Z,4.40
2019-01-25T18:53:20.141Z,4.40
2019-01-25T18:55:49.767Z,4.40
2019-01-25T18:58:19.230Z,4.30
2019-01-25T19:00:48.729Z,4.30
2019-01-25T19:03:18.090Z,4.30
2019-01-25T19:05:47.551Z,4.30
2019-01-25T19:08:16.988Z,4.30
2019-01-25T19:10:46.444Z,4.30
2019-01-25T19:13:15.915Z,4.30
2019-01-25T19:15:45.395Z,4.40
2019-01-25T19:18:14.889Z,4.40
2019-01-25T19:20:44.438Z,4.40
2019-01-25T19:23:13.976Z,4.40
2019-01-25T19:25:43.425Z,4.40
2019-01-25T19:28:12.937Z,4.40
2019-01-25T19:30:44.889Z,4.40
2019-01-25T19:33:14.370Z,4.40
2019-01-25T19:35:44.003Z,4.40
2019-01-25T19:38:13.949Z,4.50
2019-01-25T19:40:43.513Z,4.50
2019-01-25T19:43:12.984Z,4.50
2019-01-25T19:45:42.597Z,4.60
2019-01-25T19:48:11.975Z,4.60
2019-01-25T19:50:41.375Z,4.60
2019-01-25T19:53:11.103Z,4.60
2019-01-25T19:55:40.628Z,4.60
2019-01-25T19:58:12.647Z,4.60
2019-01-25T20:00:46.685Z,4.60
2019-01-25T20:03:16.098Z,4.70
2019-01-25T20:05:45.653Z,4.60
2019-01-25T20:08:15.030Z,4.70
2019-01-25T20:10:44.612Z,4.70
2019-01-25T20:13:14.004Z,4.70
2019-01-25T20:15:43.588Z,4.80
2019-01-25T20:18:13.084Z,4.80
2019-01-25T20:20:42.600Z,4.90
2019-01-25T20:23:12.156Z,4.90
2019-01-25T20:25:41.786Z,4.90
2019-01-25T20:28:12.014Z,4.90
2019-01-25T20:30:41.627Z,4.90
2019-01-25T20:33:10.986Z,5.00
2019-01-25T20:35:42.670Z,5.00
2019-01-25T20:38:12.377Z,5.00
2019-01-25T20:40:42.086Z,5.00
2019-01-25T20:43:13.000Z,5.10
2019-01-25T20:45:43.168Z,5.10
2019-01-25T20:48:12.687Z,5.10
2019-01-25T20:50:42.175Z,5.10
2019-01-25T20:53:13.585Z,5.10
2019-01-25T20:55:43.520Z,5.10
2019-01-25T20:58:13.032Z,5.10
2019-01-25T21:00:42.462Z,5.10
2019-01-25T21:03:14.334Z,5.10
2019-01-25T21:05:43.867Z,5.10
2019-01-25T21:08:13.248Z,5.20
2019-01-25T21:10:42.818Z,5.20
2019-01-25T21:13:12.246Z,5.20
2019-01-25T21:15:41.851Z,5.30
2019-01-25T21:18:11.575Z,5.30
2019-01-25T21:20:43.059Z,5.30
2019-01-25T21:23:12.580Z,5.30
2019-01-25T21:25:42.129Z,5.40
2019-01-25T21:28:11.608Z,5.40
2019-01-25T21:30:41.175Z,5.40
2019-01-25T21:33:10.813Z,5.40
2019-01-25T21:35:40.299Z,5.50
2019-01-25T21:38:09.737Z,5.50
2019-01-25T21:40:39.242Z,5.50
2019-01-25T21:43:08.724Z,5.50
2019-01-25T21:45:42.962Z,5.50
2019-01-25T21:48:09.629Z,5.50
2019-01-25T21:50:41.754Z,5.50
2019-01-25T21:53:11.294Z,5.60
2019-01-25T21:55:41.034Z,5.60
2019-01-25T21:58:10.541Z,5.70
2019-01-25T22:00:39.902Z,5.70
2019-01-25T22:03:09.477Z,5.70
2019-01-25T22:05:38.978Z,5.70
2019-01-25T22:08:08.524Z,5.70
2019-01-25T22:10:40.574Z,5.70
2019-01-25T22:13:10.014Z,5.70
2019-01-25T22:15:39.488Z,5.80
2019-01-25T22:18:09.032Z,5.80
2019-01-25T22:20:38.806Z,5.80
2019-01-25T22:23:08.315Z,5.80
2019-01-25T22:25:37.693Z,5.80
2019-01-25T22:28:07.171Z,5.80
2019-01-25T22:30:36.638Z,5.90
2019-01-25T22:33:06.114Z,5.90
2019-01-25T22:35:35.557Z,5.90
2019-01-25T22:38:05.101Z,5.90
2019-01-25T22:40:34.653Z,6.00
2019-01-25T22:43:05.460Z,6.00
2019-01-25T22:45:35.128Z,6.00
2019-01-25T22:48:05.357Z,6.10
2019-01-25T22:50:35.002Z,6.10
2019-01-25T22:53:04.536Z,6.10
2019-01-25T22:55:34.108Z,6.20
2019-01-25T22:58:03.678Z,6.20
2019-01-25T23:00:58.688Z,6.20
2019-01-25T23:03:33.933Z,6.20
2019-01-25T23:06:27.214Z,6.20
2019-01-25T23:08:59.944Z,6.20
2019-01-25T23:11:29.405Z,6.20
2019-01-25T23:13:58.877Z,6.30
2019-01-25T23:16:28.410Z,6.30
2019-01-25T23:18:57.971Z,6.30
2019-01-25T23:21:27.497Z,6.30
2019-01-25T23:23:57.663Z,6.40
2019-01-25T23:26:27.162Z,6.40
2019-01-25T23:28:56.668Z,6.40
2019-01-25T23:31:26.260Z,6.40
2019-01-25T23:33:55.734Z,6.40
2019-01-25T23:36:26.223Z,6.50
2019-01-25T23:38:55.721Z,6.50
2019-01-25T23:41:25.140Z,6.50
2019-01-25T23:43:54.638Z,6.50
2019-01-25T23:46:24.246Z,6.60
2019-01-25T23:48:53.714Z,6.60
2019-01-25T23:51:23.253Z,6.60
2019-01-25T23:53:52.811Z,6.70
2019-01-25T23:56:22.300Z,6.70
2019-01-25T23:58:51.792Z,6.70
